Time;durP1;ratioP1;P1;durP2;ratioP2;P2;SDS_P1;SDS_P2;PMS_P1;PMS_P2;Temp;Humidity;BMP_temperature;BMP_pressure;BME280_temperature;BME280_humidity;BME280_pressure;Samples;Min_cycle;Max_cycle;Signal;HPM_P1;HPM_P2
2021/05/31 00:02:02;;;;;;;5.85;4.65;;;;;;;12.26;65.75;101103.69;5052365;28;20056;-66
2021/05/31 00:04:29;;;;;;;8.90;4.70;;;;;;;12.27;65.67;101102.56;5052221;28;20052;-66
2021/05/31 00:07:03;;;;;;;6.35;5.05;;;;;;;12.25;65.60;101102.88;5051885;28;20057;-66
2021/05/31 00:09:31;;;;;;;5.07;4.55;;;;;;;12.22;65.56;101097.91;5052331;28;20052;-66
2021/05/31 00:11:58;;;;;;;5.18;4.57;;;;;;;12.16;65.68;101104.75;5048229;28;20060;-66
2021/05/31 00:14:26;;;;;;;6.22;5.13;;;;;;;12.17;65.50;101103.59;5054088;28;20052;-66
2021/05/31 00:16:53;;;;;;;7.80;4.78;;;;;;;12.13;65.62;101102.56;5055896;28;20064;-66
2021/05/31 00:19:21;;;;;;;5.88;4.57;;;;;;;12.08;65.55;101097.91;5055686;28;20513;-65
2021/05/31 00:21:49;;;;;;;7.40;5.47;;;;;;;12.02;65.97;101104.72;5055362;28;20060;-66
2021/05/31 00:24:16;;;;;;;6.70;4.80;;;;;;;11.95;66.07;101104.31;5054894;28;20143;-66
2021/05/31 00:26:43;;;;;;;5.55;4.97;;;;;;;11.90;66.26;101101.59;5055528;28;20060;-66
2021/05/31 00:29:10;;;;;;;5.95;4.90;;;;;;;11.84;66.50;101100.00;5055354;28;20055;-66
2021/05/31 00:31:37;;;;;;;6.10;4.90;;;;;;;11.83;66.58;101095.56;5055303;28;20401;-66
2021/05/31 00:34:05;;;;;;;8.88;5.15;;;;;;;11.83;66.54;101098.38;5055353;28;20056;-66
2021/05/31 00:36:32;;;;;;;5.43;4.47;;;;;;;11.75;66.91;101097.09;5055254;28;20064;-66
2021/05/31 00:38:59;;;;;;;6.65;5.00;;;;;;;11.74;66.94;101093.47;5054883;28;20057;-66
2021/05/31 00:41:26;;;;;;;7.35;5.05;;;;;;;11.71;66.92;101091.28;5055245;28;20481;-66
2021/05/31 00:43:52;;;;;;;8.48;5.80;;;;;;;11.71;66.80;101096.88;5053961;28;20401;-66
2021/05/31 00:46:19;;;;;;;7.03;4.55;;;;;;;11.73;66.39;101091.81;5035291;28;20410;-66
2021/05/31 00:48:47;;;;;;;6.43;4.90;;;;;;;11.72;66.33;101095.75;5035007;28;20053;-66
2021/05/31 00:51:14;;;;;;;7.28;5.10;;;;;;;11.65;66.52;101092.50;5034865;28;20101;-66
2021/05/31 00:53:41;;;;;;;7.20;4.72;;;;;;;11.65;66.54;101094.50;5042803;28;20060;-66
2021/05/31 00:56:08;;;;;;;6.47;4.45;;;;;;;11.66;66.32;101085.81;5054775;28;20057;-66
2021/05/31 00:58:36;;;;;;;7.75;4.50;;;;;;;11.64;66.34;101088.09;5054880;28;20068;-66
2021/05/31 01:01:05;;;;;;;4.78;4.28;;;;;;;11.61;66.19;101079.50;5055157;28;20049;-66
2021/05/31 01:03:33;;;;;;;6.28;4.30;;;;;;;11.57;66.33;101082.91;5054852;28;20497;-65
2021/05/31 01:06:05;;;;;;;6.88;4.35;;;;;;;11.55;66.45;101084.34;5054555;28;20053;-65
2021/05/31 01:08:41;;;;;;;7.47;4.93;;;;;;;11.54;66.38;101077.09;5052807;28;20395;-65
2021/05/31 01:11:12;;;;;;;6.15;4.80;;;;;;;11.51;66.58;101078.56;5053485;28;20045;-66
2021/05/31 01:13:45;;;;;;;5.53;4.63;;;;;;;11.51;66.62;101078.56;5054287;28;20060;-66
2021/05/31 01:16:15;;;;;;;5.68;4.85;;;;;;;11.45;66.65;101078.94;5054099;28;20049;-65
2021/05/31 01:18:44;;;;;;;8.65;5.38;;;;;;;11.37;67.08;101086.88;5054603;28;20060;-65
2021/05/31 01:21:24;;;;;;;8.13;5.63;;;;;;;11.40;67.08;101081.81;5054590;28;20517;-65
2021/05/31 01:24:02;;;;;;;14.18;5.63;;;;;;;11.33;67.27;101079.41;5053383;28;20055;-66
2021/05/31 01:26:41;;;;;;;5.95;5.03;;;;;;;11.29;67.96;101087.56;5054440;28;20402;-66
2021/05/31 01:29:11;;;;;;;6.90;5.30;;;;;;;11.29;67.54;101084.78;5054100;28;20049;-66
2021/05/31 01:31:44;;;;;;;7.35;4.80;;;;;;;11.32;67.34;101092.53;5054153;28;20053;-66
2021/05/31 01:34:13;;;;;;;6.40;5.55;;;;;;;11.32;67.21;101084.19;5054385;28;20485;-65
2021/05/31 01:36:44;;;;;;;6.90;5.07;;;;;;;11.28;67.20;101080.34;5053979;28;20057;-65
2021/05/31 01:39:15;;;;;;;6.18;5.03;;;;;;;11.26;67.43;101088.19;5053533;28;20485;-65
2021/05/31 01:41:44;;;;;;;8.85;5.38;;;;;;;11.15;67.62;101089.47;5052428;28;20053;-65
2021/05/31 01:44:13;;;;;;;7.13;5.50;;;;;;;11.12;67.66;101078.91;5054213;28;20048;-66
2021/05/31 01:46:41;;;;;;;8.20;5.53;;;;;;;11.10;67.86;101079.22;5053748;28;20053;-65
2021/05/31 01:49:09;;;;;;;8.73;5.60;;;;;;;11.12;67.72;101071.38;5053655;28;20053;-65
2021/05/31 01:51:38;;;;;;;7.45;5.35;;;;;;;11.10;67.55;101075.59;5053958;28;20080;-65
2021/05/31 01:54:06;;;;;;;8.07;5.78;;;;;;;11.04;67.83;101079.59;5053989;28;20061;-65
2021/05/31 01:56:35;;;;;;;6.30;5.50;;;;;;;11.03;67.89;101067.63;5053661;28;20053;-65
2021/05/31 01:59:02;;;;;;;6.90;5.60;;;;;;;11.01;67.74;101077.44;5053756;28;20072;-66
2021/05/31 02:01:32;;;;;;;8.00;5.97;;;;;;;10.97;68.02;101080.00;5053675;28;20059;-65
2021/05/31 02:03:59;;;;;;;9.55;6.88;;;;;;;10.93;68.24;101073.38;5052931;28;20401;-65
2021/05/31 02:06:26;;;;;;;9.93;6.50;;;;;;;10.91;68.63;101076.44;5053397;28;20484;-65
2021/05/31 02:08:53;;;;;;;8.20;5.75;;;;;;;10.91;68.59;101072.84;5053739;28;20049;-65
2021/05/31 02:11:25;;;;;;;8.70;6.00;;;;;;;10.92;68.59;101072.53;5053599;28;20056;-65
2021/05/31 02:13:58;;;;;;;6.65;5.68;;;;;;;10.88;68.45;101074.28;5053661;28;20052;-65
2021/05/31 02:16:33;;;;;;;8.85;6.15;;;;;;;10.87;68.69;101069.81;5055664;28;20057;-65
2021/05/31 02:19:02;;;;;;;7.80;5.72;;;;;;;10.87;68.54;101067.03;5052714;28;20048;-65
2021/05/31 02:21:33;;;;;;;8.70;6.13;;;;;;;10.82;68.62;101071.88;5053004;28;20056;-65
2021/05/31 02:24:01;;;;;;;8.75;6.00;;;;;;;10.76;68.38;101069.16;5052709;28;20060;-65
2021/05/31 02:26:29;;;;;;;7.57;5.80;;;;;;;10.74;68.68;101065.00;5053108;28;20485;-65
2021/05/31 02:28:55;;;;;;;9.35;5.70;;;;;;;10.72;68.74;101062.50;5052971;28;20072;-65
2021/05/31 02:31:25;;;;;;;8.07;6.05;;;;;;;10.68;68.85;101064.25;5053115;28;20490;-65
2021/05/31 02:33:53;;;;;;;8.27;5.95;;;;;;;10.67;68.93;101070.13;5053028;28;20053;-65
2021/05/31 02:36:20;;;;;;;6.70;5.40;;;;;;;10.68;69.02;101066.22;5052550;28;20482;-65
2021/05/31 02:38:46;;;;;;;8.10;6.47;;;;;;;10.69;68.70;101063.13;5052567;28;20079;-65
2021/05/31 02:41:13;;;;;;;7.72;5.95;;;;;;;10.68;68.30;101067.03;5053030;28;20045;-65
2021/05/31 02:43:40;;;;;;;6.80;5.68;;;;;;;10.64;68.47;101068.75;5052974;28;20060;-65
2021/05/31 02:46:07;;;;;;;7.53;5.60;;;;;;;10.60;68.39;101069.66;5033550;28;20049;-65
2021/05/31 02:48:34;;;;;;;6.18;5.28;;;;;;;10.59;68.17;101062.44;5032674;28;20061;-65
2021/05/31 02:51:05;;;;;;;7.10;5.30;;;;;;;10.59;67.78;101059.66;5033513;28;20045;-65
2021/05/31 02:53:33;;;;;;;5.55;4.85;;;;;;;10.57;68.07;101059.97;5040026;28;20060;-66
2021/05/31 02:56:01;;;;;;;8.07;5.20;;;;;;;10.56;67.93;101056.34;5052846;28;20052;-66
2021/05/31 02:58:28;;;;;;;6.20;4.88;;;;;;;10.50;68.62;101053.94;5052761;28;20053;-66
2021/05/31 03:00:55;;;;;;;6.18;5.13;;;;;;;10.47;68.10;101060.91;5052902;28;20053;-66
2021/05/31 03:03:22;;;;;;;7.95;5.35;;;;;;;10.46;68.27;101050.91;5052728;28;20053;-66
2021/05/31 03:05:49;;;;;;;6.60;5.28;;;;;;;10.45;68.67;101054.81;5052646;28;20060;-66
2021/05/31 03:08:17;;;;;;;7.63;5.10;;;;;;;10.40;68.57;101054.91;5051728;28;20060;-66
2021/05/31 03:10:44;;;;;;;7.05;5.90;;;;;;;10.34;68.64;101056.09;5052515;28;20045;-66
2021/05/31 03:13:11;;;;;;;8.15;6.20;;;;;;;10.35;68.15;101053.00;5052448;28;20053;-66
2021/05/31 03:15:38;;;;;;;5.85;5.10;;;;;;;10.38;68.38;101054.38;5052859;28;20057;-66
2021/05/31 03:18:07;;;;;;;7.53;6.47;;;;;;;10.41;68.55;101048.19;5052555;28;20136;-65
2021/05/31 03:20:34;;;;;;;6.65;5.95;;;;;;;10.38;68.43;101057.16;5052533;28;20090;-65
2021/05/31 03:23:01;;;;;;;8.32;6.28;;;;;;;10.37;68.83;101055.47;5050909;28;20060;-66
2021/05/31 03:25:30;;;;;;;9.52;7.47;;;;;;;10.33;69.36;101048.84;5050521;28;20482;-66
2021/05/31 03:27:58;;;;;;;10.30;7.63;;;;;;;10.32;69.28;101058.34;5052804;28;20044;-66
2021/05/31 03:30:26;;;;;;;9.73;8.13;;;;;;;10.32;69.03;101061.13;5052476;28;20056;-66
2021/05/31 03:32:53;;;;;;;8.50;7.07;;;;;;;10.30;69.22;101063.38;5052469;28;20059;-65
2021/05/31 03:35:20;;;;;;;11.48;7.28;;;;;;;10.31;69.15;101062.25;5052467;28;20140;-66
2021/05/31 03:37:47;;;;;;;9.75;6.68;;;;;;;10.37;68.56;101055.47;5052295;28;20057;-65
2021/05/31 03:40:17;;;;;;;8.73;6.20;;;;;;;10.40;68.61;101065.22;5051638;28;20401;-66
2021/05/31 03:42:45;;;;;;;9.00;6.53;;;;;;;10.36;68.36;101065.78;5052236;28;20444;-65
2021/05/31 03:45:12;;;;;;;10.45;7.53;;;;;;;10.36;68.74;101071.38;5052855;28;20056;-66
2021/05/31 03:47:40;;;;;;;9.73;6.80;;;;;;;10.32;68.45;101066.69;5052073;28;20064;-65
2021/05/31 03:50:08;;;;;;;7.55;5.85;;;;;;;10.36;68.34;101063.00;5055736;28;20417;-66
2021/05/31 03:52:35;;;;;;;8.02;5.65;;;;;;;10.39;68.38;101067.16;5055960;28;20052;-66
2021/05/31 03:55:03;;;;;;;7.57;5.97;;;;;;;10.42;67.85;101058.22;5054817;28;20048;-66
2021/05/31 03:57:30;;;;;;;6.70;5.03;;;;;;;10.41;67.71;101064.06;5056009;28;20049;-66
2021/05/31 03:59:58;;;;;;;8.27;5.78;;;;;;;10.39;68.39;101067.16;5056023;28;20053;-66
2021/05/31 04:02:26;;;;;;;7.72;6.25;;;;;;;10.38;68.92;101059.94;5055968;28;20076;-66
2021/05/31 04:04:54;;;;;;;10.02;6.00;;;;;;;10.39;68.40;101067.16;5055604;28;20482;-66
2021/05/31 04:12:50;;;;;;;7.00;5.82;;;;;;;10.55;68.12;101068.59;5036083;28;20069;-66
2021/05/31 04:15:18;;;;;;;7.03;6.05;;;;;;;10.56;68.27;101067.50;5035721;28;20498;-66
2021/05/31 04:17:45;;;;;;;6.55;5.47;;;;;;;10.62;68.12;101062.66;5035515;28;20486;-66
2021/05/31 04:20:14;;;;;;;7.32;5.32;;;;;;;10.66;67.98;101072.06;5036130;28;20049;-66
2021/05/31 04:22:41;;;;;;;8.85;6.97;;;;;;;10.73;68.25;101066.13;5035483;28;20049;-65
2021/05/31 04:25:09;;;;;;;8.93;6.22;;;;;;;10.81;67.94;101070.19;5052427;28;20413;-65
2021/05/31 04:27:36;;;;;;;7.53;5.97;;;;;;;10.86;68.38;101068.19;5054870;28;20068;-66
2021/05/31 04:30:04;;;;;;;8.95;6.40;;;;;;;10.93;68.22;101067.78;5054789;28;20053;-65
2021/05/31 04:32:32;;;;;;;10.25;6.68;;;;;;;10.92;68.57;101061.41;5055293;28;20072;-66
2021/05/31 04:34:59;;;;;;;8.40;6.00;;;;;;;10.92;68.68;101055.81;5055469;28;20048;-66
2021/05/31 04:37:26;;;;;;;11.70;7.07;;;;;;;10.99;68.53;101061.00;5055488;28;20053;-66
2021/05/31 04:39:55;;;;;;;8.07;6.03;;;;;;;11.00;68.56;101057.06;5055458;28;20060;-65
2021/05/31 04:42:22;;;;;;;10.18;6.20;;;;;;;11.08;68.61;101063.94;5054647;28;20513;-65
2021/05/31 04:44:49;;;;;;;8.43;6.40;;;;;;;11.05;68.81;101065.38;5055436;28;20057;-66
2021/05/31 04:47:15;;;;;;;9.02;6.05;;;;;;;11.11;68.75;101071.72;5054830;28;20057;-66
2021/05/31 04:49:44;;;;;;;9.25;7.20;;;;;;;11.22;69.04;101061.22;5053700;28;20041;-66
2021/05/31 04:52:11;;;;;;;11.02;6.70;;;;;;;11.28;69.07;101065.56;5054730;28;20053;-65
2021/05/31 04:54:37;;;;;;;9.48;6.88;;;;;;;11.33;68.44;101065.47;5054725;28;20141;-65
2021/05/31 04:57:05;;;;;;;11.43;7.22;;;;;;;11.35;68.58;101058.44;5054851;28;20064;-65
2021/05/31 04:59:31;;;;;;;7.47;6.70;;;;;;;11.46;68.45;101064.69;5052596;28;20057;-65
2021/05/31 05:01:58;;;;;;;9.38;6.93;;;;;;;11.63;68.49;101063.28;5054736;28;20052;-66
2021/05/31 05:04:25;;;;;;;10.85;7.63;;;;;;;11.70;68.55;101055.34;5054075;28;20068;-65
2021/05/31 05:06:54;;;;;;;10.65;7.47;;;;;;;11.73;68.72;101058.31;5053801;28;20508;-65
2021/05/31 05:09:20;;;;;;;9.75;8.20;;;;;;;11.81;68.56;101053.19;5054976;28;20389;-65
2021/05/31 05:11:47;;;;;;;12.00;8.07;;;;;;;11.82;68.50;101061.22;5054225;28;20045;-65
2021/05/31 05:14:14;;;;;;;10.77;8.10;;;;;;;11.84;68.37;101058.13;5054062;28;20072;-65
2021/05/31 05:16:41;;;;;;;10.60;7.35;;;;;;;12.01;68.02;101057.56;5053601;28;20053;-65
2021/05/31 05:19:08;;;;;;;8.57;7.55;;;;;;;12.10;67.56;101066.88;5044741;28;20406;-65
2021/05/31 05:21:35;;;;;;;10.07;7.60;;;;;;;12.18;67.21;101055.81;5043604;28;20053;-65
2021/05/31 05:24:03;;;;;;;14.05;7.90;;;;;;;12.22;67.06;101046.78;5043216;28;20078;-65
2021/05/31 05:26:30;;;;;;;9.65;8.00;;;;;;;12.28;67.08;101054.75;5052827;28;20053;-65
2021/05/31 05:28:57;;;;;;;9.82;7.85;;;;;;;12.29;67.65;101050.00;5048379;28;20479;-56
2021/05/31 05:31:24;;;;;;;9.70;7.57;;;;;;;12.51;68.25;101057.63;5043862;28;20428;-55
2021/05/31 05:33:50;;;;;;;10.80;7.72;;;;;;;12.75;67.87;101046.19;5052478;28;20052;-56
2021/05/31 05:36:23;;;;;;;9.75;7.25;;;;;;;12.95;67.01;101051.28;5051740;28;20060;-54
2021/05/31 05:41:46;;;;;;;10.60;7.15;;;;;;;13.25;65.30;101051.69;5020729;28;20053;-65
2021/05/31 05:44:38;;;;;;;10.57;7.50;;;;;;;13.38;65.27;101044.41;5041702;28;20069;-65
2021/05/31 05:49:46;;;;;;;10.27;8.40;;;;;;;13.60;64.88;101049.94;5053055;28;20064;-65
2021/05/31 05:52:13;;;;;;;10.27;8.05;;;;;;;13.64;65.07;101047.34;5053435;28;20045;-65
2021/05/31 05:54:40;;;;;;;11.90;8.13;;;;;;;13.73;64.83;101042.63;5051632;28;20060;-65
2021/05/31 05:57:09;;;;;;;11.30;8.60;;;;;;;13.78;64.86;101047.28;5053713;28;20056;-65
2021/05/31 05:59:36;;;;;;;11.53;8.93;;;;;;;13.87;64.72;101045.31;5053670;28;20057;-65
2021/05/31 06:02:05;;;;;;;11.63;9.02;;;;;;;13.96;64.18;101037.81;5053430;28;20462;-65
2021/05/31 06:04:34;;;;;;;9.70;8.35;;;;;;;14.07;63.75;101038.31;5053553;28;20057;-65
2021/05/31 06:07:01;;;;;;;10.40;9.03;;;;;;;14.14;63.63;101047.06;5054197;28;20478;-65
2021/05/31 06:09:28;;;;;;;10.48;9.00;;;;;;;14.23;62.98;101037.88;5053517;28;20079;-65
2021/05/31 06:11:55;;;;;;;12.07;8.90;;;;;;;14.30;62.97;101044.66;5050902;28;20056;-65
2021/05/31 06:14:23;;;;;;;10.85;8.57;;;;;;;14.38;62.99;101037.41;5051509;28;20053;-65
2021/05/31 06:16:50;;;;;;;11.13;9.02;;;;;;;14.51;63.10;101041.22;5053552;28;20482;-65
2021/05/31 06:19:17;;;;;;;11.88;9.30;;;;;;;14.58;62.58;101030.41;5051312;28;20510;-64
2021/05/31 06:21:44;;;;;;;11.98;8.90;;;;;;;14.69;62.63;101030.91;5035693;28;20415;-65
2021/05/31 06:24:12;;;;;;;11.85;8.88;;;;;;;14.80;62.93;101030.25;5033835;28;20398;-65
2021/05/31 06:26:39;;;;;;;11.93;8.35;;;;;;;14.87;62.20;101026.13;5050983;28;20057;-65
2021/05/31 06:29:07;;;;;;;12.13;8.98;;;;;;;15.00;61.90;101025.13;5053147;28;20436;-64
2021/05/31 06:31:35;;;;;;;9.90;8.02;;;;;;;15.04;62.14;101022.50;5053380;28;20478;-65
2021/05/31 06:34:02;;;;;;;13.32;9.05;;;;;;;15.12;62.29;101021.63;5053400;28;20052;-65
2021/05/31 06:36:32;;;;;;;10.05;7.85;;;;;;;15.18;61.62;101025.94;5052977;28;20053;-65
2021/05/31 06:38:59;;;;;;;8.30;7.47;;;;;;;15.26;61.83;101019.47;5053037;28;20056;-65
2021/05/31 06:41:26;;;;;;;11.05;8.25;;;;;;;15.35;60.97;101017.50;5045189;28;20056;-65
2021/05/31 06:43:53;;;;;;;10.18;8.35;;;;;;;15.46;61.26;101022.75;5041177;28;20054;-65
2021/05/31 06:46:19;;;;;;;10.77;8.10;;;;;;;15.59;61.89;101011.31;5043955;28;20049;-64
2021/05/31 06:48:48;;;;;;;10.07;8.13;;;;;;;15.72;61.64;101015.09;5048808;28;20049;-64
2021/05/31 06:51:15;;;;;;;9.45;8.32;;;;;;;15.89;61.40;101010.56;5046361;28;20045;-64
2021/05/31 06:53:42;;;;;;;10.90;7.75;;;;;;;15.99;60.56;101010.19;5043568;28;20053;-64
2021/05/31 06:56:11;;;;;;;10.73;8.02;;;;;;;16.20;59.42;101010.25;5049801;28;20057;-64
2021/05/31 06:58:38;;;;;;;11.20;8.50;;;;;;;16.28;59.50;101008.56;5036146;28;20517;-63
2021/05/31 07:01:06;;;;;;;10.18;7.65;;;;;;;16.39;60.11;101015.41;5051173;28;20056;-65
2021/05/31 07:03:33;;;;;;;11.57;7.82;;;;;;;16.49;60.12;101012.22;5038759;28;20057;-64
2021/05/31 07:06:01;;;;;;;9.88;8.32;;;;;;;16.58;59.84;101012.16;5039495;28;20060;-64
2021/05/31 07:08:30;;;;;;;10.57;7.53;;;;;;;16.69;58.59;101004.94;5033375;28;20053;-64
2021/05/31 07:10:59;;;;;;;8.32;7.15;;;;;;;16.88;58.07;100996.03;5042964;28;20048;-64
2021/05/31 07:13:28;;;;;;;9.60;7.53;;;;;;;16.99;57.87;101000.09;5045862;28;20512;-64
2021/05/31 07:15:55;;;;;;;7.80;5.93;;;;;;;17.12;55.96;101006.59;5049291;28;20500;-64
2021/05/31 07:18:23;;;;;;;9.13;6.72;;;;;;;17.25;55.73;101004.63;5050532;28;20053;-64
2021/05/31 07:20:52;;;;;;;8.88;6.72;;;;;;;17.40;55.66;101000.34;5050744;28;20045;-64
2021/05/31 07:23:20;;;;;;;;;;;;;;;17.57;55.63;101000.13;5053056;28;20053;-64
2021/05/31 07:25:48;;;;;;;8.00;6.13;;;;;;;17.67;54.96;100998.06;5049186;28;19928;-64
2021/05/31 07:28:15;;;;;;;7.50;5.75;;;;;;;17.89;55.29;100999.63;5047348;28;20053;-64
2021/05/31 07:30:42;;;;;;;9.10;5.45;;;;;;;18.03;54.77;100997.28;5034996;28;20053;-64
2021/05/31 07:33:11;;;;;;;7.90;5.90;;;;;;;18.21;53.83;100995.88;5042195;28;20053;-65
2021/05/31 07:35:38;;;;;;;8.15;5.35;;;;;;;18.31;53.83;100994.59;5052438;28;20056;-66
2021/05/31 07:38:05;;;;;;;7.72;5.80;;;;;;;18.50;53.67;100996.78;5054097;28;20049;-66
2021/05/31 07:40:34;;;;;;;10.32;5.97;;;;;;;18.66;52.30;100994.03;5054413;28;20060;-65
2021/05/31 07:43:01;;;;;;;10.27;5.80;;;;;;;18.88;52.75;100989.88;5053874;28;20084;-65
2021/05/31 07:45:28;;;;;;;8.77;5.55;;;;;;;19.14;52.20;100982.94;5052276;28;20057;-66
2021/05/31 07:47:55;;;;;;;9.27;4.95;;;;;;;19.98;48.31;100984.78;5052777;28;20056;-66
2021/05/31 07:50:22;;;;;;;6.80;4.47;;;;;;;21.28;44.34;100977.94;5042848;28;20497;-66
2021/05/31 07:52:49;;;;;;;6.65;4.35;;;;;;;22.39;40.74;100982.72;5035166;28;20049;-66
2021/05/31 07:55:17;;;;;;;8.02;5.13;;;;;;;23.33;38.71;100970.56;5046988;28;20049;-64
2021/05/31 07:57:47;;;;;;;7.80;4.38;;;;;;;24.23;36.76;100968.50;5044885;28;20076;-66
2021/05/31 08:00:18;;;;;;;5.63;4.38;;;;;;;25.02;34.34;100966.91;5054285;28;20064;-66
2021/05/31 08:02:46;;;;;;;5.95;3.90;;;;;;;25.65;33.20;100960.94;5037652;28;20402;-65
2021/05/31 08:05:14;;;;;;;5.57;3.97;;;;;;;26.47;31.47;100962.94;5037455;28;20049;-64
2021/05/31 08:07:41;;;;;;;7.85;4.25;;;;;;;27.17;30.90;100968.00;5045987;28;20048;-66
2021/05/31 08:10:10;;;;;;;6.65;4.28;;;;;;;27.79;30.53;100966.38;5051617;28;20519;-66
2021/05/31 08:12:37;;;;;;;6.65;4.10;;;;;;;28.57;28.48;100959.13;5055257;28;20048;-63
2021/05/31 08:15:08;;;;;;;5.00;3.95;;;;;;;29.42;27.13;100967.88;5051406;28;20057;-64
2021/05/31 08:17:36;;;;;;;4.80;4.00;;;;;;;30.31;25.25;100959.03;5055401;28;20057;-66
2021/05/31 08:20:04;;;;;;;4.40;3.92;;;;;;;30.86;24.84;100962.47;5051955;28;20048;-66
2021/05/31 08:22:31;;;;;;;4.93;3.97;;;;;;;31.65;24.62;100952.09;5053038;28;20057;-66
2021/05/31 08:24:58;;;;;;;5.53;3.75;;;;;;;32.54;22.75;100954.72;5052640;28;20060;-66
2021/05/31 08:27:25;;;;;;;4.68;3.58;;;;;;;33.30;22.11;100947.50;5037692;28;20057;-66
2021/05/31 08:29:54;;;;;;;4.50;3.92;;;;;;;33.98;20.95;100948.19;5036666;28;20057;-66
2021/05/31 08:32:22;;;;;;;5.85;4.13;;;;;;;34.54;20.96;100947.44;5035868;28;20060;-66
2021/05/31 08:34:49;;;;;;;6.85;4.70;;;;;;;35.22;20.46;100943.25;5046956;28;20049;-65
2021/05/31 08:37:16;;;;;;;5.78;4.70;;;;;;;35.79;20.04;100948.78;5036216;28;20052;-65
2021/05/31 08:39:43;;;;;;;6.55;4.70;;;;;;;36.24;18.92;100948.06;5048677;28;20397;-65
2021/05/31 08:42:10;;;;;;;4.85;4.20;;;;;;;36.96;18.95;100933.22;5055367;28;20398;-65
2021/05/31 08:44:37;;;;;;;7.30;5.35;;;;;;;37.33;19.13;100933.09;5050135;28;20049;-65
2021/05/31 08:47:06;;;;;;;7.38;5.95;;;;;;;37.47;17.69;100935.28;5046796;28;20602;-65
2021/05/31 08:49:35;;;;;;;6.57;5.30;;;;;;;37.84;16.90;100943.84;5052611;28;20061;-65
2021/05/31 08:52:03;;;;;;;6.68;4.95;;;;;;;38.22;16.89;100942.31;5048234;28;20045;-66
2021/05/31 08:54:30;;;;;;;4.55;3.97;;;;;;;38.48;16.28;100941.75;5047652;28;20052;-65
2021/05/31 08:56:57;;;;;;;4.70;4.10;;;;;;;38.31;16.29;100936.41;5053655;28;20060;-65
2021/05/31 08:59:24;;;;;;;5.00;4.50;;;;;;;39.04;15.23;100939.97;5041927;28;20056;-65
2021/05/31 09:01:52;;;;;;;5.28;4.75;;;;;;;39.85;14.77;100938.59;5035235;28;20475;-66
2021/05/31 09:04:19;;;;;;;4.97;4.47;;;;;;;40.01;13.92;100936.44;5045369;28;20056;-66
2021/05/31 09:06:55;;;;;;;6.05;3.80;;;;;;;40.45;13.80;100939.13;5053499;28;20049;-66
2021/05/31 09:09:37;;;;;;;4.60;4.05;;;;;;;41.17;12.90;100935.34;5046987;28;20057;-66
2021/05/31 09:12:07;;;;;;;7.03;4.53;;;;;;;41.66;13.50;100929.63;5042646;28;20408;-65
2021/05/31 09:14:34;;;;;;;6.60;4.75;;;;;;;41.95;12.44;100928.44;5051043;28;20045;-66
2021/05/31 09:17:01;;;;;;;5.45;3.80;;;;;;;42.41;12.11;100929.44;5034943;28;20521;-66
2021/05/31 09:19:28;;;;;;;7.75;4.57;;;;;;;42.72;11.95;100922.63;5052895;28;20053;-66
2021/05/31 09:22:01;;;;;;;6.35;4.22;;;;;;;42.73;11.67;100930.06;5052321;28;20048;-66
2021/05/31 09:24:29;;;;;;;4.90;3.90;;;;;;;42.98;11.38;100928.25;5043995;28;20057;-66
2021/05/31 09:26:59;;;;;;;5.20;4.68;;;;;;;43.42;11.00;100922.13;5050515;28;20057;-66
2021/05/31 09:29:27;;;;;;;5.80;4.10;;;;;;;44.04;10.65;100919.84;5045609;28;20425;-66
2021/05/31 09:31:59;;;;;;;5.30;4.07;;;;;;;44.45;11.24;100919.13;5045821;28;20056;-66
2021/05/31 09:34:26;;;;;;;4.30;3.80;;;;;;;44.92;10.24;100921.22;5042763;28;20049;-65
2021/05/31 09:36:55;;;;;;;5.33;4.63;;;;;;;45.71;8.95;100917.56;5036299;28;20053;-66
2021/05/31 09:39:30;;;;;;;4.07;3.67;;;;;;;45.75;9.42;100918.84;5043811;28;20401;-66
2021/05/31 09:42:06;;;;;;;5.97;3.95;;;;;;;45.93;9.72;100910.63;5044778;28;20052;-66
2021/05/31 09:44:33;;;;;;;4.20;3.80;;;;;;;46.55;8.97;100909.78;5040638;28;20050;-66
2021/05/31 09:47:00;;;;;;;6.38;3.85;;;;;;;46.69;8.07;100917.34;5034636;28;20049;-66
2021/05/31 09:49:27;;;;;;;5.10;3.60;;;;;;;46.91;8.59;100912.47;5043808;28;20072;-66
2021/05/31 09:51:57;;;;;;;6.83;3.50;;;;;;;46.97;8.08;100908.06;5051041;28;20057;-66
2021/05/31 09:54:30;;;;;;;3.72;3.15;;;;;;;46.54;7.33;100908.22;5052367;28;20487;-65
2021/05/31 09:56:57;;;;;;;3.75;2.80;;;;;;;47.38;7.64;100911.94;5053555;28;20053;-66
2021/05/31 09:59:27;;;;;;;3.40;2.75;;;;;;;47.71;6.74;100910.47;5046252;28;20409;-66
2021/05/31 10:02:00;;;;;;;3.63;3.10;;;;;;;48.13;6.76;100901.81;5035815;28;20068;-66
2021/05/31 10:04:35;;;;;;;3.67;3.10;;;;;;;48.31;6.69;100908.97;5041261;28;20061;-66
2021/05/31 10:07:14;;;;;;;4.45;3.28;;;;;;;48.43;6.55;100906.56;5053431;28;20053;-66
2021/05/31 10:09:43;;;;;;;3.70;3.28;;;;;;;48.68;5.89;100904.09;5040103;28;20056;-66
2021/05/31 10:12:11;;;;;;;2.92;2.40;;;;;;;48.97;5.99;100901.19;5046188;28;20051;-66
2021/05/31 10:14:40;;;;;;;3.70;2.50;;;;;;;48.76;5.59;100893.16;5052226;28;20497;-66
2021/05/31 10:17:07;;;;;;;3.40;2.90;;;;;;;48.98;6.10;100902.81;5047991;28;20072;-66
2021/05/31 10:19:36;;;;;;;2.80;2.50;;;;;;;49.03;6.28;100895.97;5049478;28;20057;-66
2021/05/31 10:22:03;;;;;;;4.55;3.42;;;;;;;49.22;6.13;100898.69;5050666;28;20060;-66
2021/05/31 10:24:31;;;;;;;3.88;3.22;;;;;;;49.11;5.99;100893.84;5050080;28;20049;-66
2021/05/31 10:27:00;;;;;;;5.35;3.72;;;;;;;48.92;6.34;100890.31;5042411;28;20049;-66
2021/05/31 10:29:27;;;;;;;4.72;3.10;;;;;;;48.88;6.92;100892.84;5036585;28;20056;-67
2021/05/31 10:32:05;;;;;;;3.05;2.80;;;;;;;49.32;6.32;100890.09;5033770;28;20050;-66
2021/05/31 10:34:43;;;;;;;4.00;3.42;;;;;;;49.44;6.36;100881.72;5046020;28;20049;-66
2021/05/31 10:37:20;;;;;;;3.97;2.88;;;;;;;49.80;6.06;100878.78;5044742;28;20057;-66
2021/05/31 10:40:05;;;;;;;3.35;3.05;;;;;;;50.15;6.09;100889.06;5038714;28;20049;-66
2021/05/31 10:42:44;;;;;;;4.00;3.33;;;;;;;50.04;5.92;100883.44;5037639;28;20402;-66
2021/05/31 10:45:26;;;;;;;3.80;3.03;;;;;;;49.91;5.77;100878.44;5045451;28;20386;-66
2021/05/31 10:48:04;;;;;;;3.60;3.22;;;;;;;50.12;5.69;100872.44;5045136;28;20056;-64
2021/05/31 10:50:33;;;;;;;4.22;3.15;;;;;;;49.78;6.10;100872.66;5043850;28;20053;-67
2021/05/31 10:53:00;;;;;;;3.15;2.72;;;;;;;49.03;6.39;100863.41;5048889;28;20404;-67
2021/05/31 10:55:28;;;;;;;3.40;3.10;;;;;;;49.38;5.63;100875.94;5043560;28;20052;-67
2021/05/31 10:57:59;;;;;;;3.47;3.15;;;;;;;49.06;6.58;100865.22;5045414;28;20045;-64
2021/05/31 11:00:28;;;;;;;4.00;3.13;;;;;;;49.30;6.11;100866.97;5041326;28;20053;-67
2021/05/31 11:03:08;;;;;;;3.08;2.78;;;;;;;48.94;6.34;100860.94;5042854;28;20052;-66
2021/05/31 11:05:35;;;;;;;3.30;3.00;;;;;;;49.41;6.73;100862.94;5049875;28;20057;-67
2021/05/31 11:08:04;;;;;;;5.53;3.70;;;;;;;49.61;7.09;100864.25;5048734;28;20057;-67
2021/05/31 11:10:33;;;;;;;4.35;3.95;;;;;;;50.11;6.09;100852.25;5041848;28;20085;-66
2021/05/31 11:13:13;;;;;;;3.88;3.58;;;;;;;49.59;6.45;100857.34;5034156;28;20052;-66
2021/05/31 11:15:40;;;;;;;3.92;2.90;;;;;;;49.51;5.71;100858.06;5043022;28;20053;-66
2021/05/31 11:18:07;;;;;;;3.47;3.00;;;;;;;49.57;6.37;100858.69;5048231;28;20061;-66
2021/05/31 11:20:34;;;;;;;4.20;3.72;;;;;;;48.96;6.58;100858.22;5046675;28;20055;-66
2021/05/31 11:23:04;;;;;;;4.05;3.65;;;;;;;49.10;6.22;100839.03;5033713;28;20064;-66
2021/05/31 11:25:31;;;;;;;4.28;3.50;;;;;;;48.74;7.21;100847.75;5043369;28;20057;-65
2021/05/31 11:28:00;;;;;;;4.57;4.10;;;;;;;48.00;7.21;100842.00;5047181;28;20053;-66
2021/05/31 11:30:31;;;;;;;4.40;3.97;;;;;;;47.70;7.12;100843.16;5044784;28;20053;-65
2021/05/31 11:32:59;;;;;;;4.68;3.28;;;;;;;47.95;7.55;100844.50;5038937;28;20409;-65
2021/05/31 11:35:27;;;;;;;5.35;3.78;;;;;;;48.01;6.87;100837.66;5039386;28;20655;-65
2021/05/31 11:37:55;;;;;;;5.25;3.70;;;;;;;47.91;6.66;100829.28;5044644;28;20517;-65
2021/05/31 11:40:26;;;;;;;4.13;3.42;;;;;;;47.64;7.75;100825.56;5039605;28;20504;-65
2021/05/31 11:42:54;;;;;;;6.65;3.67;;;;;;;47.68;7.62;100825.22;5049361;28;20179;-65
2021/05/31 11:45:23;;;;;;;3.53;3.17;;;;;;;48.00;7.41;100828.00;5036387;28;20053;-65